Camborne, United Kingdom

9:05 AM BST on August 04, 2015 (GMT +0100)
Hayle - Foundry End | | Change Station
CLOSE
Current Station
Personal Weather Station
Location: Hayle,
Elevation: 75 ft
Nearby Weather Stations

Elev 75 ft 50.18 °N, 5.42 °W | Updated 38 seconds ago

Scattered Clouds
Scattered Clouds
61.2 °F
Feels Like 61.2 °F
N
9.0
Wind Variable Wind from WSW
Gusts 15.0 mph

Today
High -- | Low -- °F
--% Chance of Precip.
Yesterday
High -- | Low -- °F
Precip. -- in
5:53 AM 9:00 PM
Waning Gibbous, 80% visible
Pressure 29.92 in
Visibility 4.3 miles
Clouds Few 1400 ft
Scattered Clouds 4000 ft
Dew Point 51 °F
Humidity 70%
Rainfall 0.00 in
Snow Depth Not available.
UV 2 out of 12
Pollen Not available.
Air Quality Not available.
Flu Activity Not available.
METAR EGDR 040750Z 23013KT 7000 VCSH FEW014 SCT040 15/12 Q1013 WHT NOSIG

More Conditions Fewer Conditions

Pressure 29.92 in
Visibility 4.3 miles
Clouds Few 1400 ft
Scattered Clouds 4000 ft
Dew Point 51 °F
Humidity 70%
Rainfall 0.00 in
Snow Depth Not available.
UV 2 out of 12
Pollen Not available.
Air Quality Not available.
Flu Activity Not available.
METAR EGDR 040750Z 23013KT 7000 VCSH FEW014 SCT040 15/12 Q1013 WHT NOSIG

More Conditions Fewer Conditions

10-Day Weather Forecast

×

Almanac

Astronomy

Aug. 04, 2015 Rise Set
Actual Time
Civil Twilight
Nautical Twilight
Astronomical Twilight
Moon
Length of Visible Light
Length of Day
Tomorrow will be .
, % of the Moon is Illuminated

Today's Extremes

Country Highs Country Lows

Community

WunderPhotos

Upload Photos

1,843,877 photos uploaded!

WunderBlogs® & News

Nearby

Air Quality

  Air Quality AQ Index Pollutant
Not available.

Snow Depth

Station Depth Elevation

Earthquake Activity

City Distance Mag. Time & Date
Minimum magnitude displayed is 2.5.

Coastal Water Temperatures

Place Temperature

Stations

Nearby Weather Stations

Station Location Temp. Windchill Dew Point Humidity Wind Precip. Elev Updated Type